createdAt,value
2023-03-28T00:00:07.155Z,99865.09
2023-03-28T00:02:33.701Z,99863.88
2023-03-28T00:05:00.141Z,99863.13
2023-03-28T00:07:27.574Z,99885.94
2023-03-28T00:09:53.887Z,99873.69
2023-03-28T00:12:20.284Z,99878.81
2023-03-28T00:14:46.592Z,99892.44
2023-03-28T00:17:13.030Z,99887.28
2023-03-28T00:19:39.426Z,99879.75
2023-03-28T00:22:06.094Z,99874.19
2023-03-28T00:24:32.486Z,99888.75
2023-03-28T00:26:59.020Z,99892.09
2023-03-28T00:29:25.319Z,99875.25
2023-03-28T00:31:51.760Z,99879.97
2023-03-28T00:34:18.424Z,99894.03
2023-03-28T00:36:44.849Z,99894.06
2023-03-28T00:39:11.532Z,99885.63
2023-03-28T00:41:41.224Z,99880.34
2023-03-28T00:44:46.417Z,99905.47
2023-03-28T00:47:24.763Z,99906.06
2023-03-28T00:49:55.728Z,99901.53
2023-03-28T00:52:25.047Z,99892.34
2023-03-28T00:54:53.464Z,99896.19
2023-03-28T00:57:20.551Z,99893.28
2023-03-28T00:59:47.010Z,99908.94
2023-03-28T01:02:13.479Z,99902.66
2023-03-28T01:04:48.407Z,99915.63
2023-03-28T01:07:16.626Z,99914.53
2023-03-28T01:09:43.344Z,99906.81
2023-03-28T01:12:10.896Z,99903.97
2023-03-28T01:14:38.471Z,99908.34
2023-03-28T01:17:04.930Z,99913.06
2023-03-28T01:19:59.233Z,99913.75
2023-03-28T01:22:58.384Z,99912.19
2023-03-28T01:25:57.696Z,99907.25
2023-03-28T01:28:42.819Z,99920.91
2023-03-28T01:31:33.359Z,99923.97
2023-03-28T01:34:32.700Z,99917.06
2023-03-28T01:37:21.182Z,99930.09
2023-03-28T01:40:02.325Z,99915.78
2023-03-28T01:42:52.351Z,99920.97
2023-03-28T01:45:37.140Z,99923.97
2023-03-28T01:48:09.345Z,99934.16
2023-03-28T01:50:44.663Z,99913.38
2023-03-28T01:53:29.870Z,99933.50
2023-03-28T01:56:11.623Z,99924.84
2023-03-28T01:58:59.835Z,99926.41
2023-03-28T02:01:41.663Z,99928.91
2023-03-28T02:04:20.449Z,99945.06
2023-03-28T02:06:51.079Z,99938.53
2023-03-28T02:09:22.861Z,99942.63
2023-03-28T02:11:56.710Z,99920.13
2023-03-28T02:14:28.081Z,99925.38
2023-03-28T02:17:00.497Z,99938.31
2023-03-28T02:19:29.616Z,99914.75
2023-03-28T02:22:07.169Z,99927.38
2023-03-28T02:24:33.578Z,99923.84
2023-03-28T02:26:59.992Z,99926.00
2023-03-28T02:29:26.423Z,99922.84
2023-03-28T02:31:53.041Z,99919.28
2023-03-28T02:34:19.732Z,99917.59
2023-03-28T02:37:09.009Z,99928.03
2023-03-28T02:39:49.670Z,99933.84
2023-03-28T02:42:49.937Z,99930.00
2023-03-28T02:45:40.838Z,99929.22
2023-03-28T02:48:38.213Z,99927.00
2023-03-28T02:51:32.448Z,99926.16
2023-03-28T02:54:18.335Z,99931.56
2023-03-28T02:56:52.728Z,99931.16
2023-03-28T02:59:27.704Z,99929.28
2023-03-28T03:01:54.343Z,99934.53
2023-03-28T03:04:20.772Z,99934.50
2023-03-28T03:06:47.244Z,99910.97
2023-03-28T03:09:14.543Z,99938.88
2023-03-28T03:11:41.204Z,99923.00
2023-03-28T03:14:07.727Z,99937.78
2023-03-28T03:16:34.085Z,99935.19
2023-03-28T03:19:00.913Z,99921.22
2023-03-28T03:21:27.335Z,99933.09
2023-03-28T03:23:53.745Z,99932.81
2023-03-28T03:26:20.055Z,99936.06
2023-03-28T03:28:46.476Z,99928.66
2023-03-28T03:31:12.867Z,99948.31
2023-03-28T03:33:39.196Z,99926.41
2023-03-28T03:36:06.534Z,99933.09
2023-03-28T03:38:32.965Z,99937.53
2023-03-28T03:40:59.296Z,99927.94
2023-03-28T03:43:25.842Z,99941.53
2023-03-28T03:45:52.337Z,99942.31
2023-03-28T03:48:18.866Z,99936.50
2023-03-28T03:50:45.446Z,99936.25
2023-03-28T03:53:11.963Z,99950.91
2023-03-28T03:55:39.091Z,99955.50
2023-03-28T03:58:05.702Z,99962.66
2023-03-28T04:00:32.348Z,99937.69
2023-03-28T04:02:58.801Z,99953.31
2023-03-28T04:05:25.253Z,99960.53
2023-03-28T04:07:51.579Z,99965.31
2023-03-28T04:10:18.079Z,99961.94
2023-03-28T04:12:44.406Z,99961.97
2023-03-28T04:15:10.994Z,99960.00
2023-03-28T04:17:37.495Z,99965.72
2023-03-28T04:20:04.911Z,99967.38
2023-03-28T04:22:31.319Z,99958.00
2023-03-28T04:24:57.802Z,99974.72
2023-03-28T04:27:24.218Z,99965.34
2023-03-28T04:29:50.536Z,99984.56
2023-03-28T04:32:16.857Z,99962.06
2023-03-28T04:34:43.288Z,99986.41
2023-03-28T04:37:09.597Z,99974.91
2023-03-28T04:39:36.005Z,99973.44
2023-03-28T04:42:03.830Z,99986.28
2023-03-28T04:44:31.442Z,99983.06
2023-03-28T04:46:58.577Z,99977.31
2023-03-28T04:49:25.280Z,99987.22
2023-03-28T04:51:51.722Z,99983.16
2023-03-28T04:54:18.857Z,100011.91
2023-03-28T04:56:46.187Z,100005.38
2023-03-28T04:59:12.628Z,100009.72
2023-03-28T05:01:39.129Z,100007.38
2023-03-28T05:04:05.880Z,99990.19
2023-03-28T05:06:32.851Z,100015.88
2023-03-28T05:08:59.383Z,100015.19
2023-03-28T05:11:25.688Z,100013.03
2023-03-28T05:13:52.102Z,100009.94
2023-03-28T05:16:18.510Z,100025.41
2023-03-28T05:18:44.985Z,100021.66
2023-03-28T05:21:11.423Z,100023.66
2023-03-28T05:23:37.731Z,100029.78
2023-03-28T05:26:04.241Z,100037.63
2023-03-28T05:28:30.799Z,100032.41
2023-03-28T05:30:57.112Z,100037.66
2023-03-28T05:33:23.546Z,100057.44
2023-03-28T05:35:50.231Z,100047.16
2023-03-28T05:38:16.687Z,100058.19
2023-03-28T05:40:43.132Z,100050.00
2023-03-28T05:43:09.517Z,100060.25
2023-03-28T05:45:36.286Z,100062.09
2023-03-28T05:48:02.816Z,100069.09
2023-03-28T05:50:29.261Z,100070.97
2023-03-28T05:52:56.404Z,100075.44
2023-03-28T05:55:23.594Z,100066.47
2023-03-28T05:57:51.283Z,100076.72
2023-03-28T06:00:18.212Z,100080.38
2023-03-28T06:02:44.948Z,100083.97
2023-03-28T06:05:12.545Z,100091.41
2023-03-28T06:07:42.480Z,100090.47
2023-03-28T06:10:11.881Z,100105.19
2023-03-28T06:12:38.302Z,100104.28
2023-03-28T06:15:06.109Z,100096.53
2023-03-28T06:17:32.719Z,100104.00
2023-03-28T06:20:00.764Z,100099.09
2023-03-28T06:22:27.205Z,100102.69
2023-03-28T06:24:53.673Z,100097.94
2023-03-28T06:27:20.001Z,100098.03
2023-03-28T06:29:46.561Z,100099.94
2023-03-28T06:32:13.091Z,100111.66
2023-03-28T06:34:39.706Z,100103.13
2023-03-28T06:37:06.706Z,100095.44
2023-03-28T06:39:33.934Z,100107.66
2023-03-28T06:42:00.326Z,100122.94
2023-03-28T06:44:27.042Z,100127.16
2023-03-28T06:46:53.450Z,100122.53
2023-03-28T06:49:21.351Z,100125.88
2023-03-28T06:51:47.818Z,100124.66
2023-03-28T06:54:14.496Z,100125.91
2023-03-28T06:56:40.892Z,100123.75
2023-03-28T06:59:07.632Z,100124.56
2023-03-28T07:01:34.004Z,100124.22
2023-03-28T07:04:00.458Z,100143.91
2023-03-28T07:06:27.830Z,100151.25
2023-03-28T07:08:56.736Z,100134.53
2023-03-28T07:11:23.659Z,100147.09
2023-03-28T07:13:50.210Z,100141.31
2023-03-28T07:16:17.019Z,100152.09
2023-03-28T07:18:44.022Z,100166.31
2023-03-28T07:21:13.640Z,100155.59
2023-03-28T07:23:40.453Z,100147.88
2023-03-28T07:26:09.877Z,100178.88
2023-03-28T07:28:36.675Z,100180.66
2023-03-28T07:31:03.723Z,100180.56
2023-03-28T07:33:37.461Z,100167.78
2023-03-28T07:36:13.308Z,100197.06
2023-03-28T07:38:40.472Z,100187.75
2023-03-28T07:41:07.097Z,100186.94
2023-03-28T07:43:34.563Z,100183.13
2023-03-28T07:46:04.045Z,100176.66
2023-03-28T07:48:30.408Z,100184.28
2023-03-28T07:50:56.760Z,100184.19
2023-03-28T07:53:23.433Z,100188.31
2023-03-28T07:55:54.997Z,100195.47
2023-03-28T07:58:22.182Z,100205.38
2023-03-28T08:00:48.538Z,100199.03
2023-03-28T08:03:15.683Z,100197.78
2023-03-28T08:05:42.142Z,100185.59
2023-03-28T08:08:09.717Z,100217.78
2023-03-28T08:10:36.512Z,100199.41
2023-03-28T08:13:02.814Z,100199.22
2023-03-28T08:15:29.565Z,100218.41
2023-03-28T08:17:56.078Z,100220.16
2023-03-28T08:20:24.596Z,100218.22
2023-03-28T08:22:51.590Z,100223.56
2023-03-28T08:25:18.071Z,100221.78
2023-03-28T08:27:45.752Z,100232.25
2023-03-28T08:30:12.656Z,100220.63
2023-03-28T08:32:38.990Z,100213.22
2023-03-28T08:35:06.601Z,100225.59
2023-03-28T08:37:33.626Z,100227.72
2023-03-28T08:40:00.959Z,100231.19
2023-03-28T08:42:37.797Z,100231.72
2023-03-28T08:45:37.431Z,100231.53
2023-03-28T08:48:12.732Z,100245.13
2023-03-28T08:50:54.480Z,100230.69
2023-03-28T08:53:46.432Z,100231.22
2023-03-28T08:56:16.643Z,100223.75
2023-03-28T08:59:07.891Z,100229.88
2023-03-28T09:01:35.288Z,100227.59
2023-03-28T09:04:03.090Z,100221.66
2023-03-28T09:06:38.753Z,100226.16
2023-03-28T09:09:05.024Z,100231.03
2023-03-28T09:11:47.776Z,100218.06
2023-03-28T09:14:32.831Z,100222.38
2023-03-28T09:17:12.716Z,100233.50
2023-03-28T09:20:01.888Z,100220.56
2023-03-28T09:22:44.752Z,100228.94
2023-03-28T09:25:29.124Z,100222.47
2023-03-28T09:28:08.014Z,100230.53
2023-03-28T09:30:39.476Z,100229.66
2023-03-28T09:33:14.556Z,100239.22
2023-03-28T09:35:42.459Z,100227.63
2023-03-28T09:38:22.524Z,100227.97
2023-03-28T09:40:54.750Z,100216.88
2023-03-28T09:43:34.365Z,100224.75
2023-03-28T09:46:05.774Z,100233.09
2023-03-28T09:48:37.319Z,100220.78
2023-03-28T09:51:06.153Z,100232.75
2023-03-28T09:53:38.716Z,100232.66
2023-03-28T09:56:13.117Z,100233.69
2023-03-28T09:59:00.472Z,100225.56
2023-03-28T10:01:51.607Z,100217.88
2023-03-28T10:04:33.170Z,100229.16
2023-03-28T10:07:08.497Z,100225.75
2023-03-28T10:09:46.323Z,100234.47
2023-03-28T10:12:24.994Z,100236.03
2023-03-28T10:14:51.448Z,100222.03
2023-03-28T10:17:27.303Z,100211.97
2023-03-28T10:20:00.806Z,100231.13
2023-03-28T10:22:39.395Z,100223.13
2023-03-28T10:25:14.655Z,100208.78
2023-03-28T10:27:41.447Z,100210.78
2023-03-28T10:30:17.239Z,100203.31
2023-03-28T10:32:44.023Z,100210.41
2023-03-28T10:35:29.976Z,100215.81
2023-03-28T10:38:03.068Z,100217.72
2023-03-28T10:40:31.116Z,100221.06
2023-03-28T10:42:59.165Z,100222.25
2023-03-28T10:45:38.604Z,100213.97
2023-03-28T10:48:14.927Z,100213.44
2023-03-28T10:50:48.194Z,100225.31
2023-03-28T10:53:29.280Z,100219.41
2023-03-28T10:56:24.783Z,100211.88
2023-03-28T10:59:13.097Z,100209.97
2023-03-28T11:02:01.113Z,100215.72
2023-03-28T11:04:46.052Z,100203.78
2023-03-28T11:07:33.351Z,100198.75
2023-03-28T11:10:10.006Z,100199.53
2023-03-28T11:12:55.562Z,100193.22
2023-03-28T11:15:25.478Z,100201.16
2023-03-28T11:18:14.657Z,100203.97
2023-03-28T11:20:53.302Z,100201.00
2023-03-28T11:23:42.411Z,100197.56
2023-03-28T11:26:12.725Z,100178.31
2023-03-28T11:28:46.655Z,100179.97
2023-03-28T11:31:20.353Z,100192.97
2023-03-28T11:34:05.961Z,100172.09
2023-03-28T11:36:50.783Z,100180.44
2023-03-28T11:39:38.812Z,100183.34
2023-03-28T11:42:43.977Z,100161.91
2023-03-28T11:45:16.481Z,100162.50
2023-03-28T11:47:53.536Z,100162.91
2023-03-28T11:50:31.194Z,100173.53
2023-03-28T11:53:23.090Z,100173.97
2023-03-28T11:55:57.343Z,100180.47
2023-03-28T11:58:26.360Z,100178.66
2023-03-28T12:01:04.337Z,100172.66
2023-03-28T12:03:50.029Z,100165.81
2023-03-28T12:06:27.385Z,100164.41
2023-03-28T12:09:19.691Z,100164.22
2023-03-28T12:11:46.065Z,100179.31
2023-03-28T12:14:30.721Z,100161.81
2023-03-28T12:16:58.636Z,100159.97
2023-03-28T12:19:39.761Z,100167.94
2023-03-28T12:22:14.087Z,100148.56
2023-03-28T12:24:45.576Z,100143.63
2023-03-28T12:27:33.540Z,100156.31
2023-03-28T12:30:12.978Z,100149.44
2023-03-28T12:33:14.044Z,100141.78
2023-03-28T12:35:55.558Z,100141.78
2023-03-28T12:38:30.640Z,100144.38
2023-03-28T12:41:07.375Z,100135.97
2023-03-28T12:43:44.100Z,100137.66
2023-03-28T12:46:15.684Z,100120.56
2023-03-28T12:48:46.769Z,100121.09
2023-03-28T12:51:36.979Z,100108.25
2023-03-28T12:54:17.694Z,100123.44
2023-03-28T12:56:59.492Z,100128.03
2023-03-28T12:59:41.289Z,100135.63
2023-03-28T13:02:17.111Z,100133.91
2023-03-28T13:05:17.652Z,100126.34
2023-03-28T13:07:57.302Z,100118.25
2023-03-28T13:10:41.159Z,100124.56
2023-03-28T13:13:31.893Z,100123.94
2023-03-28T13:16:12.898Z,100122.41
2023-03-28T13:18:46.757Z,100105.88
2023-03-28T13:21:43.651Z,100109.66
2023-03-28T13:24:25.324Z,100110.22
2023-03-28T13:27:04.234Z,100104.78
2023-03-28T13:29:48.684Z,100104.19
2023-03-28T13:32:23.008Z,100112.47
2023-03-28T13:34:55.709Z,100104.47
2023-03-28T13:37:37.559Z,100096.53
2023-03-28T13:40:04.547Z,100095.28
2023-03-28T13:42:33.968Z,100070.19
2023-03-28T13:45:05.602Z,100067.88
2023-03-28T13:47:39.520Z,100082.94
2023-03-28T13:50:36.495Z,100089.72
2023-03-28T13:53:02.820Z,100076.53
2023-03-28T13:55:30.068Z,100079.22
2023-03-28T13:58:01.271Z,100079.16
2023-03-28T14:00:29.483Z,100071.53
2023-03-28T14:03:04.013Z,100076.81
2023-03-28T14:05:32.816Z,100080.09
2023-03-28T14:08:14.029Z,100079.44
2023-03-28T14:10:46.643Z,100068.72
2023-03-28T14:13:16.677Z,100075.19
2023-03-28T14:15:44.508Z,100056.25
2023-03-28T14:18:18.948Z,100049.28
2023-03-28T14:20:46.339Z,100055.53
2023-03-28T14:23:28.600Z,100062.69
2023-03-28T14:25:57.470Z,100049.66
2023-03-28T14:28:29.058Z,100022.13
2023-03-28T14:30:56.415Z,100039.84
2023-03-28T14:33:23.841Z,100037.41
2023-03-28T14:36:02.634Z,100034.09
2023-03-28T14:38:37.667Z,100029.19
2023-03-28T14:41:16.946Z,100022.00
2023-03-28T14:43:46.793Z,100014.75
2023-03-28T14:46:13.125Z,100021.53
2023-03-28T14:48:41.686Z,100027.41
2023-03-28T14:51:12.815Z,100013.25
2023-03-28T14:53:45.492Z,100006.94
2023-03-28T14:56:15.917Z,100013.69
2023-03-28T14:58:45.540Z,100019.47
2023-03-28T15:01:18.288Z,100015.53
2023-03-28T15:03:45.763Z,99992.44
2023-03-28T15:06:15.815Z,100005.78
2023-03-28T15:08:44.703Z,100008.88
2023-03-28T15:11:11.028Z,100008.53
2023-03-28T15:13:39.470Z,100013.44
2023-03-28T15:16:07.621Z,99994.78
2023-03-28T15:18:41.242Z,100003.31
2023-03-28T15:21:10.577Z,100005.25
2023-03-28T15:23:50.536Z,99999.38
2023-03-28T15:26:35.572Z,99987.59
2023-03-28T15:29:05.043Z,99980.38
2023-03-28T15:31:31.577Z,99973.94
2023-03-28T15:33:58.649Z,99983.88
2023-03-28T15:36:30.630Z,99993.66
2023-03-28T15:39:17.803Z,99982.59
2023-03-28T15:41:48.565Z,99963.22
2023-03-28T15:44:33.059Z,99965.63
2023-03-28T15:47:22.861Z,99968.59
2023-03-28T15:49:49.549Z,99960.84
2023-03-28T15:52:21.278Z,99963.19
2023-03-28T15:54:54.940Z,99945.59
2023-03-28T15:57:25.627Z,99961.28
2023-03-28T15:59:52.186Z,99951.25
2023-03-28T16:02:25.136Z,99962.69
2023-03-28T16:05:28.685Z,99955.13
2023-03-28T16:07:55.026Z,99946.72
2023-03-28T16:10:24.108Z,99942.81
2023-03-28T16:12:50.759Z,99937.38
2023-03-28T16:15:18.117Z,99926.00
2023-03-28T16:17:44.947Z,99935.06
2023-03-28T16:20:20.768Z,99937.63
2023-03-28T16:22:47.466Z,99932.28
2023-03-28T16:25:14.358Z,99942.97
2023-03-28T16:27:41.459Z,99929.22
2023-03-28T16:30:19.286Z,99944.66
2023-03-28T16:32:46.236Z,99938.69
2023-03-28T16:35:12.819Z,99927.41
2023-03-28T16:37:39.501Z,99933.28
2023-03-28T16:40:06.625Z,99930.03
2023-03-28T16:42:33.079Z,99936.56
2023-03-28T16:44:59.493Z,99938.16
2023-03-28T16:47:25.844Z,99925.78
2023-03-28T16:49:53.385Z,99918.53
2023-03-28T16:52:19.727Z,99913.59
2023-03-28T16:54:46.089Z,99911.81
2023-03-28T16:57:12.508Z,99909.88
2023-03-28T16:59:38.845Z,99924.34
2023-03-28T17:02:05.337Z,99911.53
2023-03-28T17:04:31.759Z,99906.91
2023-03-28T17:06:58.062Z,99900.91
2023-03-28T17:09:24.544Z,99902.91
2023-03-28T17:11:50.844Z,99910.16
2023-03-28T17:14:18.476Z,99914.97
2023-03-28T17:16:44.898Z,99912.41
2023-03-28T17:19:11.396Z,99894.41
2023-03-28T17:21:37.993Z,99889.50
2023-03-28T17:24:04.579Z,99889.34
2023-03-28T17:26:31.179Z,99875.38
2023-03-28T17:28:57.987Z,99887.72
2023-03-28T17:31:24.618Z,99881.34
2023-03-28T17:33:51.033Z,99880.78
2023-03-28T17:36:26.999Z,99890.97
2023-03-28T17:38:55.586Z,99880.75
2023-03-28T17:41:23.467Z,99856.69
2023-03-28T17:43:51.500Z,99872.31
2023-03-28T17:46:17.989Z,99865.06
2023-03-28T17:48:44.761Z,99864.31
2023-03-28T17:51:11.840Z,99874.78
2023-03-28T17:53:39.277Z,99872.84
2023-03-28T17:56:06.125Z,99854.22
2023-03-28T17:58:33.195Z,99869.09
2023-03-28T18:01:00.262Z,99875.97
2023-03-28T18:03:27.001Z,99853.81
2023-03-28T18:05:53.668Z,99861.53
2023-03-28T18:08:20.331Z,99847.25
2023-03-28T18:10:47.177Z,99866.25
2023-03-28T18:13:14.785Z,99861.13
2023-03-28T18:15:41.436Z,99855.22
2023-03-28T18:18:09.251Z,99871.53
2023-03-28T18:20:35.842Z,99858.94
2023-03-28T18:23:02.278Z,99854.94
2023-03-28T18:25:30.290Z,99853.59
2023-03-28T18:27:57.800Z,99848.59
2023-03-28T18:30:24.109Z,99857.34
2023-03-28T18:32:50.628Z,99874.38
2023-03-28T18:35:17.007Z,99854.19
2023-03-28T18:37:43.312Z,99849.25
2023-03-28T18:40:09.884Z,99815.97
2023-03-28T18:42:36.268Z,99856.06
2023-03-28T18:45:04.372Z,99854.41
2023-03-28T18:47:30.688Z,99857.28
2023-03-28T18:49:57.028Z,99849.31
2023-03-28T18:52:23.456Z,99856.16
2023-03-28T18:54:49.895Z,99859.88
2023-03-28T18:57:16.307Z,99865.16
2023-03-28T18:59:42.730Z,99855.72
2023-03-28T19:02:11.949Z,99862.63
2023-03-28T19:04:38.384Z,99853.16
2023-03-28T19:07:04.956Z,99840.16
2023-03-28T19:09:31.420Z,99844.59
2023-03-28T19:11:58.482Z,99826.66
2023-03-28T19:14:24.790Z,99808.59
2023-03-28T19:16:51.133Z,99810.41
2023-03-28T19:19:17.552Z,99826.59
2023-03-28T19:21:44.231Z,99812.53
2023-03-28T19:24:10.532Z,99827.00
2023-03-28T19:26:36.879Z,99815.25
2023-03-28T19:29:03.587Z,99803.38
2023-03-28T19:31:30.039Z,99815.25
2023-03-28T19:33:56.719Z,99810.13
2023-03-28T19:36:23.337Z,99796.25
2023-03-28T19:38:49.840Z,99811.75
2023-03-28T19:41:24.993Z,99812.28
2023-03-28T19:43:51.443Z,99798.72
2023-03-28T19:46:27.948Z,99810.13
2023-03-28T19:48:57.612Z,99808.78
2023-03-28T19:51:24.018Z,99814.16
2023-03-28T19:53:50.636Z,99816.81
2023-03-28T19:56:17.123Z,99810.06
2023-03-28T19:58:43.529Z,99803.28
2023-03-28T20:01:10.161Z,99775.06
2023-03-28T20:03:36.566Z,99811.78
2023-03-28T20:06:06.403Z,99814.44
2023-03-28T20:08:32.820Z,99801.88
2023-03-28T20:10:59.778Z,99791.50
2023-03-28T20:13:26.444Z,99788.09
2023-03-28T20:15:53.091Z,99800.66
2023-03-28T20:18:20.670Z,99786.94
2023-03-28T20:20:58.367Z,99798.75
2023-03-28T20:23:26.372Z,99789.84
2023-03-28T20:25:53.712Z,99794.75
2023-03-28T20:28:24.058Z,99790.44
2023-03-28T20:30:52.286Z,99779.47
2023-03-28T20:33:19.040Z,99784.41
2023-03-28T20:35:56.686Z,99780.72
2023-03-28T20:38:23.708Z,99759.19
2023-03-28T20:40:50.549Z,99763.28
2023-03-28T20:43:16.966Z,99759.47
2023-03-28T20:45:43.449Z,99758.53
2023-03-28T20:48:09.805Z,99777.81
2023-03-28T20:50:36.230Z,99760.44
2023-03-28T20:53:04.562Z,99766.75
2023-03-28T20:55:32.292Z,99739.97
2023-03-28T20:57:58.899Z,99733.84
2023-03-28T21:00:25.927Z,99732.34
2023-03-28T21:02:52.377Z,99739.28
2023-03-28T21:05:19.365Z,99743.16
2023-03-28T21:07:45.804Z,99738.59
2023-03-28T21:10:12.353Z,99733.69
2023-03-28T21:12:38.769Z,99712.91
2023-03-28T21:15:06.077Z,99719.06
2023-03-28T21:17:32.443Z,99712.78
2023-03-28T21:19:58.821Z,99717.47
2023-03-28T21:22:25.778Z,99723.97
2023-03-28T21:24:52.365Z,99717.19
2023-03-28T21:27:19.051Z,99736.13
2023-03-28T21:29:45.448Z,99713.94
2023-03-28T21:32:11.853Z,99724.16
2023-03-28T21:34:38.566Z,99722.31
2023-03-28T21:37:05.013Z,99710.28
2023-03-28T21:39:31.397Z,99717.06
2023-03-28T21:41:58.083Z,99715.34
2023-03-28T21:44:24.538Z,99719.50
2023-03-28T21:46:50.861Z,99716.97
2023-03-28T21:49:17.312Z,99700.94
2023-03-28T21:51:43.991Z,99696.88
2023-03-28T21:54:10.473Z,99722.50
2023-03-28T21:56:36.887Z,99711.81
2023-03-28T21:59:03.241Z,99695.00
2023-03-28T22:01:29.668Z,99701.91
2023-03-28T22:03:56.040Z,99719.06
2023-03-28T22:06:22.346Z,99702.47
2023-03-28T22:08:48.752Z,99707.75
2023-03-28T22:11:18.063Z,99718.22
2023-03-28T22:13:44.940Z,99716.72
2023-03-28T22:16:11.929Z,99722.00
2023-03-28T22:18:39.938Z,99721.00
2023-03-28T22:21:08.683Z,99715.78
2023-03-28T22:23:35.231Z,99714.56
2023-03-28T22:26:01.552Z,99705.75
2023-03-28T22:28:28.031Z,99714.69
2023-03-28T22:30:55.630Z,99708.47
2023-03-28T22:33:22.623Z,99713.31
2023-03-28T22:35:49.636Z,99710.63
2023-03-28T22:38:16.071Z,99687.13
2023-03-28T22:40:42.468Z,99687.66
2023-03-28T22:43:09.092Z,99689.84
2023-03-28T22:45:35.573Z,99681.91
2023-03-28T22:48:01.948Z,99688.66
2023-03-28T22:50:29.123Z,99689.63
2023-03-28T22:52:55.799Z,99690.75
2023-03-28T22:55:23.799Z,99685.03
2023-03-28T22:57:51.547Z,99700.88
2023-03-28T23:00:19.222Z,99694.06
2023-03-28T23:02:45.874Z,99671.56
2023-03-28T23:05:13.832Z,99690.56
2023-03-28T23:07:40.416Z,99688.53
2023-03-28T23:10:11.434Z,99674.19
2023-03-28T23:12:37.959Z,99651.00
2023-03-28T23:15:04.800Z,99668.31
2023-03-28T23:17:31.435Z,99674.22
2023-03-28T23:19:57.838Z,99658.25
2023-03-28T23:22:24.215Z,99667.91
2023-03-28T23:24:50.897Z,99667.22
2023-03-28T23:27:20.767Z,99675.66
2023-03-28T23:29:47.141Z,99663.91
2023-03-28T23:32:13.634Z,99685.53
2023-03-28T23:34:40.026Z,99668.94
2023-03-28T23:37:06.442Z,99661.28
2023-03-28T23:39:32.763Z,99654.25
2023-03-28T23:41:59.402Z,99654.97
2023-03-28T23:44:25.709Z,99669.28
2023-03-28T23:46:52.104Z,99659.16
2023-03-28T23:49:18.605Z,99673.47
2023-03-28T23:51:45.033Z,99663.00
2023-03-28T23:54:11.357Z,99682.63
2023-03-28T23:56:38.021Z,99682.56
2023-03-28T23:59:04.401Z,99675.59
